sensor_id;sensor_type;location;lat;lon;timestamp;P1;P2;P0
78063;PMS5003;67429;51.596;-3.264;2023-02-27T00:01:57;6;5;
78063;PMS5003;67429;51.596;-3.264;2023-02-27T00:04:22;9;9;
78063;PMS5003;67429;51.596;-3.264;2023-02-27T00:06:48;6;6;
78063;PMS5003;67429;51.596;-3.264;2023-02-27T00:09:13;11;11;
78063;PMS5003;67429;51.596;-3.264;2023-02-27T00:11:38;6;6;
78063;PMS5003;67429;51.596;-3.264;2023-02-27T00:14:04;5;5;
78063;PMS5003;67429;51.596;-3.264;2023-02-27T00:16:30;7;6;
78063;PMS5003;67429;51.596;-3.264;2023-02-27T00:18:55;9;7;
78063;PMS5003;67429;51.596;-3.264;2023-02-27T00:21:21;7;7;
78063;PMS5003;67429;51.596;-3.264;2023-02-27T00:23:46;9;7;
78063;PMS5003;67429;51.596;-3.264;2023-02-27T00:26:12;6;6;
78063;PMS5003;67429;51.596;-3.264;2023-02-27T00:28:37;9;9;
78063;PMS5003;67429;51.596;-3.264;2023-02-27T00:31:03;7;7;
78063;PMS5003;67429;51.596;-3.264;2023-02-27T00:33:28;6;5;
78063;PMS5003;67429;51.596;-3.264;2023-02-27T00:35:55;7;7;
78063;PMS5003;67429;51.596;-3.264;2023-02-27T00:38:19;9;8;
78063;PMS5003;67429;51.596;-3.264;2023-02-27T00:40:45;7;6;
78063;PMS5003;67429;51.596;-3.264;2023-02-27T00:43:10;10;10;
78063;PMS5003;67429;51.596;-3.264;2023-02-27T00:45:36;7;7;
78063;PMS5003;67429;51.596;-3.264;2023-02-27T00:48:01;7;6;
78063;PMS5003;67429;51.596;-3.264;2023-02-27T00:50:26;5;5;
78063;PMS5003;67429;51.596;-3.264;2023-02-27T00:52:52;9;9;
78063;PMS5003;67429;51.596;-3.264;2023-02-27T00:55:17;6;5;
78063;PMS5003;67429;51.596;-3.264;2023-02-27T00:57:43;6;5;
78063;PMS5003;67429;51.596;-3.264;2023-02-27T01:00:09;7;6;
78063;PMS5003;67429;51.596;-3.264;2023-02-27T01:02:34;5;3;
78063;PMS5003;67429;51.596;-3.264;2023-02-27T01:04:59;10;9;
78063;PMS5003;67429;51.596;-3.264;2023-02-27T01:07:25;8;8;
78063;PMS5003;67429;51.596;-3.264;2023-02-27T01:09:50;6;6;
78063;PMS5003;67429;51.596;-3.264;2023-02-27T01:12:16;9;6;
78063;PMS5003;67429;51.596;-3.264;2023-02-27T01:14:41;5;5;
78063;PMS5003;67429;51.596;-3.264;2023-02-27T01:17:07;6;6;
78063;PMS5003;67429;51.596;-3.264;2023-02-27T01:19:32;6;6;
78063;PMS5003;67429;51.596;-3.264;2023-02-27T01:21:58;5;5;
78063;PMS5003;67429;51.596;-3.264;2023-02-27T01:24:23;7;6;
78063;PMS5003;67429;51.596;-3.264;2023-02-27T01:26:49;6;6;
78063;PMS5003;67429;51.596;-3.264;2023-02-27T01:29:14;6;6;
78063;PMS5003;67429;51.596;-3.264;2023-02-27T01:31:40;7;7;
78063;PMS5003;67429;51.596;-3.264;2023-02-27T01:34:05;6;6;
78063;PMS5003;67429;51.596;-3.264;2023-02-27T01:36:31;9;8;
78063;PMS5003;67429;51.596;-3.264;2023-02-27T01:38:56;9;7;
78063;PMS5003;67429;51.596;-3.264;2023-02-27T01:41:22;8;8;
78063;PMS5003;67429;51.596;-3.264;2023-02-27T01:43:54;8;8;
78063;PMS5003;67429;51.596;-3.264;2023-02-27T01:46:13;10;9;
78063;PMS5003;67429;51.596;-3.264;2023-02-27T01:48:38;8;8;
78063;PMS5003;67429;51.596;-3.264;2023-02-27T01:51:05;8;8;
78063;PMS5003;67429;51.596;-3.264;2023-02-27T01:53:29;8;8;
78063;PMS5003;67429;51.596;-3.264;2023-02-27T01:55:54;10;10;
78063;PMS5003;67429;51.596;-3.264;2023-02-27T01:58:19;9;8;
78063;PMS5003;67429;51.596;-3.264;2023-02-27T02:00:44;9;6;
78063;PMS5003;67429;51.596;-3.264;2023-02-27T02:03:14;9;9;
78063;PMS5003;67429;51.596;-3.264;2023-02-27T02:05:34;6;6;
78063;PMS5003;67429;51.596;-3.264;2023-02-27T02:08:00;10;8;
78063;PMS5003;67429;51.596;-3.264;2023-02-27T02:10:25;5;5;
78063;PMS5003;67429;51.596;-3.264;2023-02-27T02:12:49;12;10;
78063;PMS5003;67429;51.596;-3.264;2023-02-27T02:15:15;10;10;
78063;PMS5003;67429;51.596;-3.264;2023-02-27T02:17:41;8;8;
78063;PMS5003;67429;51.596;-3.264;2023-02-27T02:25:01;8;6;
78063;PMS5003;67429;51.596;-3.264;2023-02-27T02:27:24;12;12;
78063;PMS5003;67429;51.596;-3.264;2023-02-27T02:32:17;9;7;
78063;PMS5003;67429;51.596;-3.264;2023-02-27T02:41:55;6;6;
78063;PMS5003;67429;51.596;-3.264;2023-02-27T02:44:18;6;5;
78063;PMS5003;67429;51.596;-3.264;2023-02-27T02:46:44;7;6;
78063;PMS5003;67429;51.596;-3.264;2023-02-27T02:49:11;6;6;
78063;PMS5003;67429;51.596;-3.264;2023-02-27T02:51:34;8;6;
78063;PMS5003;67429;51.596;-3.264;2023-02-27T02:53:59;6;5;
78063;PMS5003;67429;51.596;-3.264;2023-02-27T02:56:25;6;6;
78063;PMS5003;67429;51.596;-3.264;2023-02-27T02:58:51;6;5;
78063;PMS5003;67429;51.596;-3.264;2023-02-27T03:01:15;8;5;
78063;PMS5003;67429;51.596;-3.264;2023-02-27T03:03:40;9;8;
78063;PMS5003;67429;51.596;-3.264;2023-02-27T03:06:05;6;5;
78063;PMS5003;67429;51.596;-3.264;2023-02-27T03:08:30;5;5;
78063;PMS5003;67429;51.596;-3.264;2023-02-27T03:10:55;6;6;
78063;PMS5003;67429;51.596;-3.264;2023-02-27T03:13:21;8;6;
78063;PMS5003;67429;51.596;-3.264;2023-02-27T03:15:46;5;5;
78063;PMS5003;67429;51.596;-3.264;2023-02-27T03:18:11;5;5;
78063;PMS5003;67429;51.596;-3.264;2023-02-27T03:20:36;4;4;
78063;PMS5003;67429;51.596;-3.264;2023-02-27T03:23:02;6;6;
78063;PMS5003;67429;51.596;-3.264;2023-02-27T03:25:25;4;4;
78063;PMS5003;67429;51.596;-3.264;2023-02-27T03:27:52;5;4;
78063;PMS5003;67429;51.596;-3.264;2023-02-27T03:30:17;5;5;
78063;PMS5003;67429;51.596;-3.264;2023-02-27T03:32:44;4;4;
78063;PMS5003;67429;51.596;-3.264;2023-02-27T03:35:08;5;5;
78063;PMS5003;67429;51.596;-3.264;2023-02-27T03:37:35;5;4;
78063;PMS5003;67429;51.596;-3.264;2023-02-27T03:39:59;5;5;
78063;PMS5003;67429;51.596;-3.264;2023-02-27T03:42:25;5;5;
78063;PMS5003;67429;51.596;-3.264;2023-02-27T03:44:51;6;5;
78063;PMS5003;67429;51.596;-3.264;2023-02-27T03:47:13;5;5;
78063;PMS5003;67429;51.596;-3.264;2023-02-27T03:49:38;6;6;
78063;PMS5003;67429;51.596;-3.264;2023-02-27T03:52:03;7;6;
78063;PMS5003;67429;51.596;-3.264;2023-02-27T03:54:31;7;7;
78063;PMS5003;67429;51.596;-3.264;2023-02-27T03:56:56;9;9;
78063;PMS5003;67429;51.596;-3.264;2023-02-27T03:59:20;10;10;
78063;PMS5003;67429;51.596;-3.264;2023-02-27T04:01:45;10;10;
78063;PMS5003;67429;51.596;-3.264;2023-02-27T04:04:11;14;13;
78063;PMS5003;67429;51.596;-3.264;2023-02-27T04:06:35;11;11;
78063;PMS5003;67429;51.596;-3.264;2023-02-27T04:09:02;12;12;
78063;PMS5003;67429;51.596;-3.264;2023-02-27T04:11:30;14;14;
78063;PMS5003;67429;51.596;-3.264;2023-02-27T04:13:53;13;10;
78063;PMS5003;67429;51.596;-3.264;2023-02-27T04:16:22;14;13;
78063;PMS5003;67429;51.596;-3.264;2023-02-27T04:18:45;11;11;
78063;PMS5003;67429;51.596;-3.264;2023-02-27T04:21:06;13;13;
78063;PMS5003;67429;51.596;-3.264;2023-02-27T04:23:32;11;11;
78063;PMS5003;67429;51.596;-3.264;2023-02-27T04:25:59;11;11;
78063;PMS5003;67429;51.596;-3.264;2023-02-27T04:28:24;11;11;
78063;PMS5003;67429;51.596;-3.264;2023-02-27T04:30:52;10;10;
78063;PMS5003;67429;51.596;-3.264;2023-02-27T04:33:13;10;10;
78063;PMS5003;67429;51.596;-3.264;2023-02-27T04:35:39;11;10;
78063;PMS5003;67429;51.596;-3.264;2023-02-27T04:38:05;9;9;
78063;PMS5003;67429;51.596;-3.264;2023-02-27T04:40:31;10;10;
78063;PMS5003;67429;51.596;-3.264;2023-02-27T04:42:55;9;9;
78063;PMS5003;67429;51.596;-3.264;2023-02-27T04:45:21;11;11;
78063;PMS5003;67429;51.596;-3.264;2023-02-27T04:47:46;13;10;
78063;PMS5003;67429;51.596;-3.264;2023-02-27T04:50:13;10;9;
78063;PMS5003;67429;51.596;-3.264;2023-02-27T04:52:39;9;7;
78063;PMS5003;67429;51.596;-3.264;2023-02-27T04:55:04;11;10;
78063;PMS5003;67429;51.596;-3.264;2023-02-27T04:57:30;10;9;
78063;PMS5003;67429;51.596;-3.264;2023-02-27T04:59:54;9;9;
78063;PMS5003;67429;51.596;-3.264;2023-02-27T05:02:21;6;6;
78063;PMS5003;67429;51.596;-3.264;2023-02-27T05:04:45;11;11;
78063;PMS5003;67429;51.596;-3.264;2023-02-27T05:07:12;10;10;
78063;PMS5003;67429;51.596;-3.264;2023-02-27T05:09:37;9;9;
78063;PMS5003;67429;51.596;-3.264;2023-02-27T05:12:02;9;9;
78063;PMS5003;67429;51.596;-3.264;2023-02-27T05:14:28;7;6;
78063;PMS5003;67429;51.596;-3.264;2023-02-27T05:16:53;10;10;
78063;PMS5003;67429;51.596;-3.264;2023-02-27T05:19:17;7;7;
78063;PMS5003;67429;51.596;-3.264;2023-02-27T05:21:44;5;5;
78063;PMS5003;67429;51.596;-3.264;2023-02-27T05:24:10;7;7;
78063;PMS5003;67429;51.596;-3.264;2023-02-27T05:26:38;9;9;
78063;PMS5003;67429;51.596;-3.264;2023-02-27T05:29:00;10;10;
78063;PMS5003;67429;51.596;-3.264;2023-02-27T05:31:26;11;11;
78063;PMS5003;67429;51.596;-3.264;2023-02-27T05:33:53;13;11;
78063;PMS5003;67429;51.596;-3.264;2023-02-27T05:36:16;13;11;
78063;PMS5003;67429;51.596;-3.264;2023-02-27T05:38:42;9;7;
78063;PMS5003;67429;51.596;-3.264;2023-02-27T05:41:07;13;11;
78063;PMS5003;67429;51.596;-3.264;2023-02-27T05:43:32;14;14;
78063;PMS5003;67429;51.596;-3.264;2023-02-27T05:45:58;11;11;
78063;PMS5003;67429;51.596;-3.264;2023-02-27T05:48:23;16;15;
78063;PMS5003;67429;51.596;-3.264;2023-02-27T05:50:48;14;14;
78063;PMS5003;67429;51.596;-3.264;2023-02-27T05:53:15;15;15;
78063;PMS5003;67429;51.596;-3.264;2023-02-27T05:55:40;16;16;
78063;PMS5003;67429;51.596;-3.264;2023-02-27T05:58:06;18;16;
78063;PMS5003;67429;51.596;-3.264;2023-02-27T06:00:32;18;18;
78063;PMS5003;67429;51.596;-3.264;2023-02-27T06:02:55;19;18;
78063;PMS5003;67429;51.596;-3.264;2023-02-27T06:05:21;18;18;
78063;PMS5003;67429;51.596;-3.264;2023-02-27T06:07:46;16;15;
78063;PMS5003;67429;51.596;-3.264;2023-02-27T06:10:13;20;19;
78063;PMS5003;67429;51.596;-3.264;2023-02-27T06:12:38;18;18;
78063;PMS5003;67429;51.596;-3.264;2023-02-27T06:15:04;16;16;
78063;PMS5003;67429;51.596;-3.264;2023-02-27T06:17:29;18;18;
78063;PMS5003;67429;51.596;-3.264;2023-02-27T06:19:55;14;14;
78063;PMS5003;67429;51.596;-3.264;2023-02-27T06:22:20;14;12;
78063;PMS5003;67429;51.596;-3.264;2023-02-27T06:24:46;17;16;
78063;PMS5003;67429;51.596;-3.264;2023-02-27T06:27:11;17;17;
78063;PMS5003;67429;51.596;-3.264;2023-02-27T06:29:37;11;10;
78063;PMS5003;67429;51.596;-3.264;2023-02-27T06:32:03;14;12;
78063;PMS5003;67429;51.596;-3.264;2023-02-27T06:34:28;12;12;
78063;PMS5003;67429;51.596;-3.264;2023-02-27T06:36:53;14;12;
78063;PMS5003;67429;51.596;-3.264;2023-02-27T06:39:19;16;15;
78063;PMS5003;67429;51.596;-3.264;2023-02-27T06:41:45;15;14;
78063;PMS5003;67429;51.596;-3.264;2023-02-27T06:44:10;11;11;
78063;PMS5003;67429;51.596;-3.264;2023-02-27T06:46:36;12;12;
78063;PMS5003;67429;51.596;-3.264;2023-02-27T06:49:01;14;14;
78063;PMS5003;67429;51.596;-3.264;2023-02-27T06:51:27;12;12;
78063;PMS5003;67429;51.596;-3.264;2023-02-27T06:53:52;12;12;
78063;PMS5003;67429;51.596;-3.264;2023-02-27T06:56:18;15;14;
78063;PMS5003;67429;51.596;-3.264;2023-02-27T06:58:42;12;12;
78063;PMS5003;67429;51.596;-3.264;2023-02-27T07:01:08;11;10;
78063;PMS5003;67429;51.596;-3.264;2023-02-27T07:03:34;12;11;
78063;PMS5003;67429;51.596;-3.264;2023-02-27T07:05:59;20;19;
78063;PMS5003;67429;51.596;-3.264;2023-02-27T07:08:25;14;13;
78063;PMS5003;67429;51.596;-3.264;2023-02-27T07:10:51;12;11;
78063;PMS5003;67429;51.596;-3.264;2023-02-27T07:13:16;12;11;
78063;PMS5003;67429;51.596;-3.264;2023-02-27T07:15:42;12;12;
78063;PMS5003;67429;51.596;-3.264;2023-02-27T07:18:07;14;12;
78063;PMS5003;67429;51.596;-3.264;2023-02-27T07:20:32;14;12;
78063;PMS5003;67429;51.596;-3.264;2023-02-27T07:22:58;14;14;
78063;PMS5003;67429;51.596;-3.264;2023-02-27T07:25:23;10;10;
78063;PMS5003;67429;51.596;-3.264;2023-02-27T07:27:49;14;14;
78063;PMS5003;67429;51.596;-3.264;2023-02-27T07:30:14;16;16;
78063;PMS5003;67429;51.596;-3.264;2023-02-27T07:32:40;18;16;
78063;PMS5003;67429;51.596;-3.264;2023-02-27T07:35:06;18;15;
78063;PMS5003;67429;51.596;-3.264;2023-02-27T07:37:31;16;15;
78063;PMS5003;67429;51.596;-3.264;2023-02-27T07:39:57;11;11;
78063;PMS5003;67429;51.596;-3.264;2023-02-27T07:42:22;18;16;
78063;PMS5003;67429;51.596;-3.264;2023-02-27T07:44:48;19;16;
78063;PMS5003;67429;51.596;-3.264;2023-02-27T07:47:13;24;20;
78063;PMS5003;67429;51.596;-3.264;2023-02-27T07:49:39;23;21;
78063;PMS5003;67429;51.596;-3.264;2023-02-27T07:52:04;24;21;
78063;PMS5003;67429;51.596;-3.264;2023-02-27T07:54:30;23;21;
78063;PMS5003;67429;51.596;-3.264;2023-02-27T07:56:55;19;18;
78063;PMS5003;67429;51.596;-3.264;2023-02-27T07:59:21;23;23;
78063;PMS5003;67429;51.596;-3.264;2023-02-27T08:01:46;21;19;
78063;PMS5003;67429;51.596;-3.264;2023-02-27T08:04:12;27;21;
78063;PMS5003;67429;51.596;-3.264;2023-02-27T08:06:38;19;16;
78063;PMS5003;67429;51.596;-3.264;2023-02-27T08:09:03;19;19;
78063;PMS5003;67429;51.596;-3.264;2023-02-27T08:11:28;20;19;
78063;PMS5003;67429;51.596;-3.264;2023-02-27T08:13:55;21;19;
78063;PMS5003;67429;51.596;-3.264;2023-02-27T08:16:19;16;16;
78063;PMS5003;67429;51.596;-3.264;2023-02-27T08:18:45;20;19;
78063;PMS5003;67429;51.596;-3.264;2023-02-27T08:21:11;19;16;
78063;PMS5003;67429;51.596;-3.264;2023-02-27T08:23:36;21;18;
78063;PMS5003;67429;51.596;-3.264;2023-02-27T08:26:02;17;17;
78063;PMS5003;67429;51.596;-3.264;2023-02-27T08:28:28;16;15;
78063;PMS5003;67429;51.596;-3.264;2023-02-27T08:30:53;20;18;
78063;PMS5003;67429;51.596;-3.264;2023-02-27T08:33:19;19;17;
78063;PMS5003;67429;51.596;-3.264;2023-02-27T08:35:45;16;16;
78063;PMS5003;67429;51.596;-3.264;2023-02-27T08:38:10;18;17;
78063;PMS5003;67429;51.596;-3.264;2023-02-27T08:40:36;19;18;
78063;PMS5003;67429;51.596;-3.264;2023-02-27T08:43:01;18;16;
78063;PMS5003;67429;51.596;-3.264;2023-02-27T08:45:27;13;13;
78063;PMS5003;67429;51.596;-3.264;2023-02-27T08:47:53;15;12;
78063;PMS5003;67429;51.596;-3.264;2023-02-27T08:50:18;17;16;
78063;PMS5003;67429;51.596;-3.264;2023-02-27T08:52:44;15;15;
78063;PMS5003;67429;51.596;-3.264;2023-02-27T08:55:09;16;16;
78063;PMS5003;67429;51.596;-3.264;2023-02-27T08:57:35;16;15;
78063;PMS5003;67429;51.596;-3.264;2023-02-27T09:00:01;15;15;
78063;PMS5003;67429;51.596;-3.264;2023-02-27T09:02:26;13;13;
78063;PMS5003;67429;51.596;-3.264;2023-02-27T09:04:52;18;17;
78063;PMS5003;67429;51.596;-3.264;2023-02-27T09:07:18;20;18;
78063;PMS5003;67429;51.596;-3.264;2023-02-27T09:09:44;21;16;
78063;PMS5003;67429;51.596;-3.264;2023-02-27T09:12:09;22;21;
78063;PMS5003;67429;51.596;-3.264;2023-02-27T09:14:34;17;17;
78063;PMS5003;67429;51.596;-3.264;2023-02-27T09:17:00;14;14;
78063;PMS5003;67429;51.596;-3.264;2023-02-27T09:19:26;16;16;
78063;PMS5003;67429;51.596;-3.264;2023-02-27T09:21:51;13;13;
78063;PMS5003;67429;51.596;-3.264;2023-02-27T09:24:17;14;14;
78063;PMS5003;67429;51.596;-3.264;2023-02-27T09:26:43;13;12;
78063;PMS5003;67429;51.596;-3.264;2023-02-27T09:29:08;23;19;
78063;PMS5003;67429;51.596;-3.264;2023-02-27T09:31:34;17;14;
78063;PMS5003;67429;51.596;-3.264;2023-02-27T09:34:00;12;11;
78063;PMS5003;67429;51.596;-3.264;2023-02-27T09:36:26;14;13;
78063;PMS5003;67429;51.596;-3.264;2023-02-27T09:38:51;18;17;
78063;PMS5003;67429;51.596;-3.264;2023-02-27T09:41:22;13;13;
78063;PMS5003;67429;51.596;-3.264;2023-02-27T09:43:44;17;16;
78063;PMS5003;67429;51.596;-3.264;2023-02-27T09:46:08;13;12;
78063;PMS5003;67429;51.596;-3.264;2023-02-27T09:48:35;17;17;
78063;PMS5003;67429;51.596;-3.264;2023-02-27T09:50:59;14;14;
78063;PMS5003;67429;51.596;-3.264;2023-02-27T09:53:27;12;12;
78063;PMS5003;67429;51.596;-3.264;2023-02-27T09:55:51;12;12;
78063;PMS5003;67429;51.596;-3.264;2023-02-27T09:58:23;14;13;
78063;PMS5003;67429;51.596;-3.264;2023-02-27T10:00:44;18;17;
78063;PMS5003;67429;51.596;-3.264;2023-02-27T10:03:12;17;16;
78063;PMS5003;67429;51.596;-3.264;2023-02-27T10:05:34;18;18;
78063;PMS5003;67429;51.596;-3.264;2023-02-27T10:08:01;19;18;
78063;PMS5003;67429;51.596;-3.264;2023-02-27T10:10:27;14;14;
78063;PMS5003;67429;51.596;-3.264;2023-02-27T10:12:53;17;17;
78063;PMS5003;67429;51.596;-3.264;2023-02-27T10:15:19;14;14;
78063;PMS5003;67429;51.596;-3.264;2023-02-27T10:17:43;14;14;
78063;PMS5003;67429;51.596;-3.264;2023-02-27T10:20:09;9;9;
78063;PMS5003;67429;51.596;-3.264;2023-02-27T10:22:34;13;12;
78063;PMS5003;67429;51.596;-3.264;2023-02-27T10:25:00;13;9;
78063;PMS5003;67429;51.596;-3.264;2023-02-27T10:27:25;9;8;
78063;PMS5003;67429;51.596;-3.264;2023-02-27T10:29:52;9;9;
78063;PMS5003;67429;51.596;-3.264;2023-02-27T10:32:17;9;9;
78063;PMS5003;67429;51.596;-3.264;2023-02-27T10:34:42;18;15;
78063;PMS5003;67429;51.596;-3.264;2023-02-27T10:37:09;12;11;
78063;PMS5003;67429;51.596;-3.264;2023-02-27T10:39:36;17;15;
78063;PMS5003;67429;51.596;-3.264;2023-02-27T10:42:00;14;13;
78063;PMS5003;67429;51.596;-3.264;2023-02-27T10:44:24;13;13;
78063;PMS5003;67429;51.596;-3.264;2023-02-27T10:46:50;17;14;
78063;PMS5003;67429;51.596;-3.264;2023-02-27T10:49:16;15;14;
78063;PMS5003;67429;51.596;-3.264;2023-02-27T10:51:41;17;15;
78063;PMS5003;67429;51.596;-3.264;2023-02-27T10:56:31;17;17;
78063;PMS5003;67429;51.596;-3.264;2023-02-27T10:59:01;12;12;
78063;PMS5003;67429;51.596;-3.264;2023-02-27T11:01:23;14;12;
78063;PMS5003;67429;51.596;-3.264;2023-02-27T11:03:53;13;10;
78063;PMS5003;67429;51.596;-3.264;2023-02-27T11:06:19;18;17;
78063;PMS5003;67429;51.596;-3.264;2023-02-27T11:08:40;12;12;
78063;PMS5003;67429;51.596;-3.264;2023-02-27T11:11:06;15;15;
78063;PMS5003;67429;51.596;-3.264;2023-02-27T11:13:32;15;14;
78063;PMS5003;67429;51.596;-3.264;2023-02-27T11:16:03;12;12;
78063;PMS5003;67429;51.596;-3.264;2023-02-27T11:18:24;10;10;
78063;PMS5003;67429;51.596;-3.264;2023-02-27T11:20:48;11;11;
78063;PMS5003;67429;51.596;-3.264;2023-02-27T11:23:15;13;13;
78063;PMS5003;67429;51.596;-3.264;2023-02-27T11:25:39;15;13;
78063;PMS5003;67429;51.596;-3.264;2023-02-27T11:28:11;13;11;
78063;PMS5003;67429;51.596;-3.264;2023-02-27T11:30:30;11;11;
78063;PMS5003;67429;51.596;-3.264;2023-02-27T11:32:56;11;11;
78063;PMS5003;67429;51.596;-3.264;2023-02-27T11:35:23;15;14;
78063;PMS5003;67429;51.596;-3.264;2023-02-27T11:37:47;13;11;
78063;PMS5003;67429;51.596;-3.264;2023-02-27T11:40:13;15;13;
78063;PMS5003;67429;51.596;-3.264;2023-02-27T11:42:41;13;13;
78063;PMS5003;67429;51.596;-3.264;2023-02-27T11:45:04;14;14;
78063;PMS5003;67429;51.596;-3.264;2023-02-27T11:47:30;10;10;
78063;PMS5003;67429;51.596;-3.264;2023-02-27T11:50:00;11;11;
78063;PMS5003;67429;51.596;-3.264;2023-02-27T11:52:21;16;16;
78063;PMS5003;67429;51.596;-3.264;2023-02-27T11:54:45;15;14;
78063;PMS5003;67429;51.596;-3.264;2023-02-27T11:57:22;11;11;
78063;PMS5003;67429;51.596;-3.264;2023-02-27T11:59:38;15;14;
78063;PMS5003;67429;51.596;-3.264;2023-02-27T12:02:03;11;11;
78063;PMS5003;67429;51.596;-3.264;2023-02-27T12:04:28;11;11;
78063;PMS5003;67429;51.596;-3.264;2023-02-27T12:06:54;10;10;
78063;PMS5003;67429;51.596;-3.264;2023-02-27T12:09:23;11;11;
78063;PMS5003;67429;51.596;-3.264;2023-02-27T12:11:45;14;12;
78063;PMS5003;67429;51.596;-3.264;2023-02-27T12:14:16;11;11;
78063;PMS5003;67429;51.596;-3.264;2023-02-27T12:16:36;11;11;
78063;PMS5003;67429;51.596;-3.264;2023-02-27T12:19:04;14;12;
78063;PMS5003;67429;51.596;-3.264;2023-02-27T12:21:29;20;20;
78063;PMS5003;67429;51.596;-3.264;2023-02-27T12:23:55;16;16;
78063;PMS5003;67429;51.596;-3.264;2023-02-27T12:26:20;24;23;
78063;PMS5003;67429;51.596;-3.264;2023-02-27T12:28:49;9;9;
78063;PMS5003;67429;51.596;-3.264;2023-02-27T12:31:16;10;10;
78063;PMS5003;67429;51.596;-3.264;2023-02-27T12:33:38;22;21;
78063;PMS5003;67429;51.596;-3.264;2023-02-27T12:36:02;15;15;
78063;PMS5003;67429;51.596;-3.264;2023-02-27T12:38:27;14;14;
78063;PMS5003;67429;51.596;-3.264;2023-02-27T12:40:56;16;15;
78063;PMS5003;67429;51.596;-3.264;2023-02-27T12:43:21;14;14;
78063;PMS5003;67429;51.596;-3.264;2023-02-27T12:48:17;14;14;
78063;PMS5003;67429;51.596;-3.264;2023-02-27T12:50:40;17;16;
78063;PMS5003;67429;51.596;-3.264;2023-02-27T12:53:01;14;12;
78063;PMS5003;67429;51.596;-3.264;2023-02-27T12:55:26;14;11;
78063;PMS5003;67429;51.596;-3.264;2023-02-27T12:58:00;10;9;
78063;PMS5003;67429;51.596;-3.264;2023-02-27T13:00:16;10;10;
78063;PMS5003;67429;51.596;-3.264;2023-02-27T13:02:46;10;10;
78063;PMS5003;67429;51.596;-3.264;2023-02-27T13:05:11;10;10;
78063;PMS5003;67429;51.596;-3.264;2023-02-27T13:07:33;23;23;
78063;PMS5003;67429;51.596;-3.264;2023-02-27T13:09:59;35;35;
78063;PMS5003;67429;51.596;-3.264;2023-02-27T13:12:28;12;12;
78063;PMS5003;67429;51.596;-3.264;2023-02-27T13:14:52;16;15;
78063;PMS5003;67429;51.596;-3.264;2023-02-27T13:17:17;18;16;
78063;PMS5003;67429;51.596;-3.264;2023-02-27T13:19:43;16;15;
78063;PMS5003;67429;51.596;-3.264;2023-02-27T13:22:10;15;14;
78063;PMS5003;67429;51.596;-3.264;2023-02-27T13:24:33;14;14;
78063;PMS5003;67429;51.596;-3.264;2023-02-27T13:26:59;22;18;
78063;PMS5003;67429;51.596;-3.264;2023-02-27T13:29:26;30;28;
78063;PMS5003;67429;51.596;-3.264;2023-02-27T13:31:53;17;16;
78063;PMS5003;67429;51.596;-3.264;2023-02-27T13:34:16;27;27;
78063;PMS5003;67429;51.596;-3.264;2023-02-27T13:36:43;24;24;
78063;PMS5003;67429;51.596;-3.264;2023-02-27T13:41:34;21;17;
78063;PMS5003;67429;51.596;-3.264;2023-02-27T13:43:58;21;19;
78063;PMS5003;67429;51.596;-3.264;2023-02-27T13:46:24;20;17;
78063;PMS5003;67429;51.596;-3.264;2023-02-27T13:48:50;20;20;
78063;PMS5003;67429;51.596;-3.264;2023-02-27T13:53:41;29;29;
78063;PMS5003;67429;51.596;-3.264;2023-02-27T13:58:31;23;22;
78063;PMS5003;67429;51.596;-3.264;2023-02-27T14:00:58;23;22;
78063;PMS5003;67429;51.596;-3.264;2023-02-27T14:03:22;16;14;
78063;PMS5003;67429;51.596;-3.264;2023-02-27T14:05:47;16;14;
78063;PMS5003;67429;51.596;-3.264;2023-02-27T14:08:13;16;15;
78063;PMS5003;67429;51.596;-3.264;2023-02-27T14:10:39;14;13;
78063;PMS5003;67429;51.596;-3.264;2023-02-27T14:13:04;13;11;
78063;PMS5003;67429;51.596;-3.264;2023-02-27T14:17:55;15;15;
78063;PMS5003;67429;51.596;-3.264;2023-02-27T14:25:17;20;20;
78063;PMS5003;67429;51.596;-3.264;2023-02-27T14:27:43;17;16;
78063;PMS5003;67429;51.596;-3.264;2023-02-27T14:30:03;15;14;
78063;PMS5003;67429;51.596;-3.264;2023-02-27T14:32:30;10;9;
78063;PMS5003;67429;51.596;-3.264;2023-02-27T14:34:54;9;9;
78063;PMS5003;67429;51.596;-3.264;2023-02-27T14:37:20;11;11;
78063;PMS5003;67429;51.596;-3.264;2023-02-27T14:39:46;8;8;
78063;PMS5003;67429;51.596;-3.264;2023-02-27T14:42:19;9;9;
78063;PMS5003;67429;51.596;-3.264;2023-02-27T14:44:37;11;10;
78063;PMS5003;67429;51.596;-3.264;2023-02-27T14:47:02;11;10;
78063;PMS5003;67429;51.596;-3.264;2023-02-27T14:49:28;7;7;
78063;PMS5003;67429;51.596;-3.264;2023-02-27T14:51:54;6;6;
78063;PMS5003;67429;51.596;-3.264;2023-02-27T14:54:20;6;6;
78063;PMS5003;67429;51.596;-3.264;2023-02-27T14:59:20;5;4;
78063;PMS5003;67429;51.596;-3.264;2023-02-27T15:01:36;4;4;
78063;PMS5003;67429;51.596;-3.264;2023-02-27T15:04:02;3;3;
78063;PMS5003;67429;51.596;-3.264;2023-02-27T15:06:30;4;4;
78063;PMS5003;67429;51.596;-3.264;2023-02-27T15:08:53;4;4;
78063;PMS5003;67429;51.596;-3.264;2023-02-27T15:11:20;4;4;
78063;PMS5003;67429;51.596;-3.264;2023-02-27T15:13:45;4;4;
78063;PMS5003;67429;51.596;-3.264;2023-02-27T15:16:18;4;4;
78063;PMS5003;67429;51.596;-3.264;2023-02-27T15:18:38;4;3;
78063;PMS5003;67429;51.596;-3.264;2023-02-27T15:21:02;8;5;
78063;PMS5003;67429;51.596;-3.264;2023-02-27T15:23:28;5;4;
78063;PMS5003;67429;51.596;-3.264;2023-02-27T15:25:54;5;5;
78063;PMS5003;67429;51.596;-3.264;2023-02-27T15:28:20;6;5;
78063;PMS5003;67429;51.596;-3.264;2023-02-27T15:30:46;5;5;
78063;PMS5003;67429;51.596;-3.264;2023-02-27T15:33:11;5;5;
78063;PMS5003;67429;51.596;-3.264;2023-02-27T15:35:36;5;4;
78063;PMS5003;67429;51.596;-3.264;2023-02-27T15:38:02;4;4;
78063;PMS5003;67429;51.596;-3.264;2023-02-27T15:40:28;3;3;
78063;PMS5003;67429;51.596;-3.264;2023-02-27T15:42:54;4;4;
78063;PMS5003;67429;51.596;-3.264;2023-02-27T15:45:20;3;3;
78063;PMS5003;67429;51.596;-3.264;2023-02-27T15:47:45;3;3;
78063;PMS5003;67429;51.596;-3.264;2023-02-27T15:52:39;4;4;
78063;PMS5003;67429;51.596;-3.264;2023-02-27T15:55:03;8;8;
78063;PMS5003;67429;51.596;-3.264;2023-02-27T15:57:28;7;7;
78063;PMS5003;67429;51.596;-3.264;2023-02-27T15:59:54;6;6;
78063;PMS5003;67429;51.596;-3.264;2023-02-27T16:02:20;5;5;
78063;PMS5003;67429;51.596;-3.264;2023-02-27T16:04:45;6;5;
78063;PMS5003;67429;51.596;-3.264;2023-02-27T16:07:13;6;6;
78063;PMS5003;67429;51.596;-3.264;2023-02-27T16:09:36;5;5;
78063;PMS5003;67429;51.596;-3.264;2023-02-27T16:12:09;8;7;
78063;PMS5003;67429;51.596;-3.264;2023-02-27T16:14:37;7;7;
78063;PMS5003;67429;51.596;-3.264;2023-02-27T16:16:54;5;5;
78063;PMS5003;67429;51.596;-3.264;2023-02-27T16:19:23;5;5;
78063;PMS5003;67429;51.596;-3.264;2023-02-27T16:24:17;9;8;
78063;PMS5003;67429;51.596;-3.264;2023-02-27T16:26:36;5;4;
78063;PMS5003;67429;51.596;-3.264;2023-02-27T16:29:03;5;5;
78063;PMS5003;67429;51.596;-3.264;2023-02-27T16:31:29;9;8;
78063;PMS5003;67429;51.596;-3.264;2023-02-27T16:33:54;9;9;
78063;PMS5003;67429;51.596;-3.264;2023-02-27T16:36:20;8;7;
78063;PMS5003;67429;51.596;-3.264;2023-02-27T16:38:46;8;8;
78063;PMS5003;67429;51.596;-3.264;2023-02-27T16:41:11;7;5;
78063;PMS5003;67429;51.596;-3.264;2023-02-27T16:43:37;9;9;